Terminal Aerodrome Forecast
Issued by NWS

Home | Current Version | Previous Version | Text Only | Print | Product List | Glossary On
Versions: 1 2 3 4 5 6 7 8 9 10 11 12 13 14 15 16 17 18 19 20 21 22 23 24 25 26 27 28 29 30 31 32 33 34 35 36 37 38 39 40 41 42
000
FTUS43 KPAH 220538
TAFOWB
TAF
KOWB 220538Z 2206/2306 VRB03KT P6SM SCT040 BKN150
     FM221100 07003KT 6SM BR SCT050 OVC100
     FM221400 05004KT 5SM BR VCSH OVC010
     FM221700 04008KT 3SM SHRA BR OVC007 PROB30 2217/2223 3SM TSRA
      BR OVC015CB
     FM230300 34012G20KT 3SM -RA BR OVC012=

USA.gov is the U.S. government's official web portal to all federal, state and local government web resources and services.